Time;durP1;ratioP1;P1;durP2;ratioP2;P2;SDS_P1;SDS_P2;PMS_P1;PMS_P2;Temp;Humidity;BMP_temperature;BMP_pressure;BME280_temperature;BME280_humidity;BME280_pressure;Samples;Min_cycle;Max_cycle;Signal;HPM_P1;HPM_P2
2021/12/12 00:01:06;;;;;;;9.00;5.30;;;;;;;2.68;78.42;100345.65;24473;1355;3026480;-61
2021/12/12 00:03:39;;;;;;;7.00;4.10;;;;;;;3.24;76.86;100338.72;24478;1354;3068339;-61
2021/12/12 00:06:16;;;;;;;6.60;5.20;;;;;;;3.76;75.07;100337.84;24453;1362;3047941;-60
2021/12/12 00:08:47;;;;;;;9.00;6.10;;;;;;;3.62;74.83;100350.03;24460;1354;3056104;-62
2021/12/12 00:11:19;;;;;;;8.60;6.30;;;;;;;3.42;75.51;100352.30;24445;1358;3026610;-60
2021/12/12 00:13:51;;;;;;;8.70;6.30;;;;;;;3.30;76.13;100362.02;24461;1354;3027935;-62
2021/12/12 00:16:20;;;;;;;9.60;6.10;;;;;;;3.01;77.07;100360.05;24472;1354;3026991;-60
2021/12/12 00:18:50;;;;;;;9.20;5.70;;;;;;;2.76;77.64;100348.30;24499;1355;3026881;-61
2021/12/12 00:21:19;;;;;;;9.10;5.90;;;;;;;2.69;77.91;100346.67;24469;1354;3026531;-60
2021/12/12 00:23:48;;;;;;;7.40;4.60;;;;;;;2.62;78.55;100352.13;24447;1358;3049410;-61
2021/12/12 00:26:17;;;;;;;7.60;4.70;;;;;;;3.13;77.18;100353.30;24455;1358;3029453;-62
2021/12/12 00:28:46;;;;;;;7.40;4.70;;;;;;;3.50;75.31;100356.14;24391;1351;3055853;-62
2021/12/12 00:31:16;;;;;;;8.10;5.20;;;;;;;3.62;74.70;100352.30;24375;1350;3027370;-61
2021/12/12 00:33:47;;;;;;;7.40;5.30;;;;;;;3.48;75.01;100362.41;24438;1357;3050738;-62
2021/12/12 00:36:18;;;;;;;7.30;5.60;;;;;;;3.32;75.56;100364.23;24434;1357;3027087;-62
2021/12/12 00:38:58;;;;;;;8.20;6.00;;;;;;;3.18;76.20;100364.30;24448;1357;3030197;-61
2021/12/12 00:41:31;;;;;;;8.30;5.50;;;;;;;3.12;76.55;100359.71;24492;1360;3054922;-61
2021/12/12 00:44:00;;;;;;;8.10;6.10;;;;;;;2.93;77.03;100358.80;24471;1360;3027363;-60
2021/12/12 00:46:29;;;;;;;5.90;4.40;;;;;;;2.81;77.84;100366.57;24443;1354;3026847;-60
2021/12/12 00:48:58;;;;;;;8.00;5.10;;;;;;;3.25;76.90;100360.88;24508;1355;3026415;-60
2021/12/12 00:51:30;;;;;;;12.90;5.70;;;;;;;3.61;75.14;100363.05;24493;1361;3058699;-63
2021/12/12 00:53:59;;;;;;;8.60;5.90;;;;;;;3.53;75.21;100361.27;24474;1354;3028098;-62
2021/12/12 00:56:28;;;;;;;8.40;5.20;;;;;;;3.61;75.18;100365.13;24461;1354;3026932;-61
2021/12/12 00:58:57;;;;;;;9.20;6.80;;;;;;;3.36;75.50;100367.63;24487;1355;3058324;-61
2021/12/12 01:01:29;;;;;;;10.10;6.00;;;;;;;3.11;76.82;100363.02;24451;1354;3026926;-60
2021/12/12 01:04:04;;;;;;;9.50;6.60;;;;;;;3.03;76.72;100357.77;24463;1354;3054339;-62
2021/12/12 01:06:34;;;;;;;9.30;6.30;;;;;;;2.88;77.29;100357.81;24502;1350;3058572;-61
2021/12/12 01:09:07;;;;;;;6.90;4.60;;;;;;;2.70;78.47;100360.34;24424;1355;3026620;-61
2021/12/12 01:11:39;;;;;;;8.20;5.10;;;;;;;3.22;77.06;100360.92;24468;1354;3025957;-62
2021/12/12 01:14:11;;;;;;;8.60;5.30;;;;;;;3.51;75.37;100355.27;24494;1354;3026794;-62
2021/12/12 01:16:47;;;;;;;9.00;5.60;;;;;;;3.56;74.94;100356.73;24430;1357;3028661;-61
2021/12/12 01:19:34;;;;;;;7.40;5.50;;;;;;;3.33;75.33;100359.02;24452;1358;3048482;-63
2021/12/12 01:22:10;;;;;;;11.40;6.90;;;;;;;3.04;76.34;100375.75;24449;1354;3055501;-62
2021/12/12 01:24:44;;;;;;;13.00;8.40;;;;;;;2.87;77.04;100383.63;24498;1354;3052396;-61
2021/12/12 01:27:13;;;;;;;13.40;8.70;;;;;;;2.79;77.49;100383.21;24482;1354;3056754;-61
2021/12/12 01:29:43;;;;;;;11.10;7.10;;;;;;;2.67;78.03;100384.23;24465;1357;3026796;-62
2021/12/12 01:32:21;;;;;;;9.10;5.40;;;;;;;2.49;78.85;100375.65;24472;1358;3027035;-60
2021/12/12 01:34:51;;;;;;;8.50;5.20;;;;;;;2.94;77.48;100370.19;24484;1358;3053871;-60
2021/12/12 01:40:04;;;;;;;9.20;6.20;;;;;;;3.57;74.89;100366.93;24486;1353;3052423;-61
2021/12/12 01:42:46;;;;;;;9.10;5.90;;;;;;;3.25;75.28;100361.94;24472;1355;3051249;-60
2021/12/12 01:45:20;;;;;;;9.90;5.80;;;;;;;3.13;76.16;100362.98;24487;1354;3071442;-60
2021/12/12 01:48:04;;;;;;;11.70;7.30;;;;;;;2.98;76.71;100356.45;24435;1359;3051875;-62
2021/12/12 01:50:40;;;;;;;13.80;8.80;;;;;;;2.77;77.51;100354.16;24434;1358;3051515;-61
2021/12/12 01:53:10;;;;;;;15.80;9.60;;;;;;;2.58;78.52;100357.04;24172;1358;3442874;-60
2021/12/12 01:55:48;;;;;;;13.80;7.90;;;;;;;2.61;78.45;100350.06;24441;1353;3026860;-61
2021/12/12 01:58:21;;;;;;;11.40;7.10;;;;;;;3.02;77.29;100344.27;24458;1354;3048896;-62
2021/12/12 02:00:53;;;;;;;11.50;6.90;;;;;;;3.40;75.58;100345.40;24479;1358;3055217;-62
2021/12/12 02:03:25;;;;;;;12.00;8.20;;;;;;;3.43;75.26;100348.11;24475;1354;3028007;-61
2021/12/12 02:05:58;;;;;;;10.30;7.30;;;;;;;3.05;76.08;100352.71;24439;1354;3026673;-60
2021/12/12 02:08:28;;;;;;;10.70;7.80;;;;;;;2.85;77.02;100353.71;24451;1358;3051214;-61
2021/12/12 02:11:00;;;;;;;12.70;7.80;;;;;;;2.64;77.64;100356.26;24512;1354;3028583;-60
2021/12/12 02:13:30;;;;;;;10.70;7.90;;;;;;;2.51;77.95;100364.73;24457;1354;3028267;-60
2021/12/12 02:16:00;;;;;;;13.50;9.10;;;;;;;2.45;78.28;100373.80;24459;1354;3027168;-61
2021/12/12 02:18:33;;;;;;;14.00;8.10;;;;;;;2.40;78.75;100375.24;24477;1354;3026872;-61
2021/12/12 02:21:12;;;;;;;10.90;6.90;;;;;;;2.76;77.75;100369.41;24484;1357;3052566;-61
2021/12/12 02:37:40;;;;;;;12.70;8.90;;;;;;;2.52;77.98;100342.58;24468;1355;3055992;-61
2021/12/12 02:40:25;;;;;;;12.60;8.60;;;;;;;2.49;78.06;100339.33;24475;1354;3026654;-61
2021/12/12 02:42:55;;;;;;;11.80;6.50;;;;;;;2.37;78.59;100336.55;24476;1353;3052560;-62
2021/12/12 02:45:26;;;;;;;12.00;7.00;;;;;;;2.97;77.17;100323.93;24457;1358;3029137;-60
2021/12/12 02:48:00;;;;;;;9.60;6.50;;;;;;;3.24;75.74;100322.47;24502;1355;3027702;-61
2021/12/12 02:50:34;;;;;;;11.90;7.30;;;;;;;3.45;74.91;100323.48;24499;1358;3048487;-61
2021/12/12 02:53:12;;;;;;;8.50;5.90;;;;;;;3.24;75.12;100321.60;24501;1353;3026673;-60
2021/12/12 02:55:44;;;;;;;9.60;6.50;;;;;;;3.00;75.58;100331.16;24479;1354;3052049;-62
2021/12/12 02:58:16;;;;;;;11.10;7.20;;;;;;;2.71;76.32;100331.59;24499;1354;3029127;-60
2021/12/12 03:01:16;;;;;;;11.90;7.30;;;;;;;2.44;77.30;100341.30;24472;1354;3026533;-60
2021/12/12 03:03:47;;;;;;;11.00;7.40;;;;;;;2.13;78.37;100345.31;24443;1360;3055671;-61
2021/12/12 03:06:22;;;;;;;11.70;7.30;;;;;;;2.09;79.03;100349.86;24473;1354;3026492;-61
2021/12/12 03:08:53;;;;;;;13.40;6.90;;;;;;;2.51;78.22;100354.34;24472;1354;3070299;-62
2021/12/12 03:11:24;;;;;;;10.60;6.80;;;;;;;2.97;76.37;100357.17;24476;1354;3028985;-60
2021/12/12 03:13:55;;;;;;;11.60;7.10;;;;;;;3.06;75.68;100350.45;24528;1354;3026811;-61
2021/12/12 03:16:24;;;;;;;10.90;6.30;;;;;;;2.96;75.20;100349.05;24433;1354;3026487;-61
2021/12/12 03:18:53;;;;;;;12.10;7.00;;;;;;;2.70;75.92;100341.97;24408;1354;3026614;-60
2021/12/12 03:21:30;;;;;;;10.30;7.30;;;;;;;2.55;76.65;100340.12;24471;1354;3056288;-60
2021/12/12 03:24:06;;;;;;;11.40;7.20;;;;;;;2.31;77.35;100336.98;24465;1355;3055563;-60
2021/12/12 03:26:36;;;;;;;8.60;5.80;;;;;;;2.08;78.37;100339.17;24466;1355;3058934;-62
2021/12/12 03:29:05;;;;;;;9.90;5.80;;;;;;;2.08;78.56;100345.23;24463;1354;3026596;-61
2021/12/12 03:31:46;;;;;;;7.70;5.20;;;;;;;2.46;77.58;100340.42;24460;1354;3026680;-62
2021/12/12 03:34:18;;;;;;;12.80;6.00;;;;;;;2.81;76.03;100335.27;24446;1360;3053872;-61
2021/12/12 03:36:49;;;;;;;9.00;6.20;;;;;;;2.91;75.40;100334.23;24462;1354;3026971;-61
2021/12/12 03:39:24;;;;;;;9.10;5.90;;;;;;;2.75;75.58;100347.82;24468;1354;3026728;-62
2021/12/12 03:41:54;;;;;;;12.80;6.90;;;;;;;2.46;76.63;100354.59;24508;1358;3054831;-62
2021/12/12 03:44:27;;;;;;;13.00;8.70;;;;;;;2.37;76.95;100359.56;24474;1357;3026899;-60
2021/12/12 03:47:01;;;;;;;17.00;9.00;;;;;;;2.18;77.65;100354.95;24527;1358;3028809;-61
2021/12/12 03:49:32;;;;;;;17.50;8.90;;;;;;;2.05;77.75;100351.64;24483;1358;3049626;-62
2021/12/12 03:52:01;;;;;;;12.50;6.30;;;;;;;2.00;78.23;100351.17;24466;1360;3026884;-61
2021/12/12 03:54:30;;;;;;;13.10;6.80;;;;;;;2.37;77.25;100352.98;24495;1354;3027018;-62
2021/12/12 03:56:59;;;;;;;11.50;7.10;;;;;;;2.77;75.71;100344.98;24452;1361;3052331;-61
2021/12/12 03:59:28;;;;;;;9.90;6.30;;;;;;;2.78;75.10;100341.69;24474;1354;3027310;-61
2021/12/12 04:01:58;;;;;;;8.50;5.30;;;;;;;2.71;75.28;100341.10;24471;1358;3055710;-61
2021/12/12 04:04:32;;;;;;;10.80;6.30;;;;;;;2.40;75.78;100329.41;24485;1357;3027358;-60
2021/12/12 04:07:06;;;;;;;9.20;5.90;;;;;;;2.09;76.85;100324.11;24475;1361;3052384;-61
2021/12/12 04:09:35;;;;;;;10.40;5.90;;;;;;;1.87;77.54;100321.77;24464;1357;3050397;-61
2021/12/12 04:12:07;;;;;;;7.80;4.80;;;;;;;1.60;78.65;100314.63;24441;1354;3030170;-62
2021/12/12 04:14:36;;;;;;;8.60;5.60;;;;;;;1.49;79.29;100315.61;24464;1357;3028642;-60
2021/12/12 04:17:08;;;;;;;9.50;5.30;;;;;;;1.87;78.44;100311.23;24503;1355;3026758;-63
2021/12/12 04:19:38;;;;;;;11.80;5.90;;;;;;;2.41;76.17;100302.44;24467;1354;3071459;-61
2021/12/12 04:22:07;;;;;;;10.90;5.90;;;;;;;2.56;75.65;100306.20;24480;1357;3026541;-60
2021/12/12 04:24:40;;;;;;;9.60;5.70;;;;;;;2.45;75.43;100313.78;24512;1354;3026519;-61
2021/12/12 04:27:09;;;;;;;12.40;6.60;;;;;;;2.13;76.11;100324.40;24469;1358;3070980;-63
2021/12/12 04:29:40;;;;;;;10.40;6.70;;;;;;;1.71;77.38;100338.52;24493;1357;3026702;-61
2021/12/12 04:32:15;;;;;;;13.00;6.50;;;;;;;1.59;77.94;100347.11;24480;1354;3052455;-60
2021/12/12 04:35:00;;;;;;;9.50;6.40;;;;;;;1.47;78.49;100346.52;24455;1357;3071762;-60
2021/12/12 04:37:29;;;;;;;11.10;5.90;;;;;;;1.23;78.67;100345.52;24481;1348;3049161;-61
2021/12/12 04:39:58;;;;;;;8.50;5.50;;;;;;;1.76;77.84;100330.52;24487;1354;3026976;-61
2021/12/12 04:42:31;;;;;;;9.20;5.70;;;;;;;2.11;76.01;100318.90;24456;1354;3071216;-60
2021/12/12 04:45:09;;;;;;;12.00;6.80;;;;;;;2.01;75.98;100324.55;24481;1357;3027010;-62
2021/12/12 04:51:21;;;;;;;12.70;6.60;;;;;;;1.80;77.01;100327.38;24444;1358;3054807;-62
2021/12/12 04:54:12;;;;;;;13.10;8.00;;;;;;;1.62;77.79;100325.85;24440;1361;3059327;-60
2021/12/12 04:56:44;;;;;;;12.70;8.10;;;;;;;1.49;78.19;100323.38;24378;1361;3052264;-62
2021/12/12 04:59:18;;;;;;;14.30;8.70;;;;;;;1.47;78.68;100341.00;24477;1361;3026592;-60
2021/12/12 05:02:04;;;;;;;13.20;7.10;;;;;;;1.46;78.79;100344.81;24505;1354;3053161;-61
2021/12/12 05:04:49;;;;;;;12.70;7.30;;;;;;;2.11;77.20;100355.70;24464;1354;3071634;-63
2021/12/12 05:07:28;;;;;;;14.40;8.10;;;;;;;2.54;75.09;100359.16;24455;1354;3053023;-61
2021/12/12 05:10:01;;;;;;;18.50;9.30;;;;;;;2.42;74.41;100362.95;24502;1357;3054072;-61
2021/12/12 05:12:44;;;;;;;13.90;8.90;;;;;;;2.19;75.15;100366.84;24524;1354;3026758;-61
2021/12/12 05:15:18;;;;;;;18.20;9.70;;;;;;;2.02;75.80;100375.34;24486;1357;3056772;-62
2021/12/12 05:17:58;;;;;;;;;;;;;;;1.90;76.33;100389.12;24469;1357;3052595;-61
2021/12/12 05:20:44;;;;;;;22.10;11.80;;;;;;;1.79;76.86;100393.55;24476;1354;3057679;-61
2021/12/12 05:23:15;;;;;;;19.50;10.50;;;;;;;1.67;77.48;100387.80;24502;1354;3052329;-62
2021/12/12 05:25:51;;;;;;;19.50;11.90;;;;;;;1.47;78.21;100381.58;24493;1355;3027156;-61
2021/12/12 05:28:21;;;;;;;17.00;9.50;;;;;;;1.41;78.87;100389.77;24487;1355;3048533;-61
2021/12/12 05:30:50;;;;;;;16.00;9.40;;;;;;;1.86;77.35;100385.88;24486;1358;3026488;-61
2021/12/12 05:33:19;;;;;;;16.60;9.30;;;;;;;2.24;75.54;100384.08;24490;1354;3026639;-61
2021/12/12 05:35:48;;;;;;;23.20;10.20;;;;;;;2.21;74.82;100389.66;24438;1360;3052814;-62
2021/12/12 05:38:17;;;;;;;20.10;10.30;;;;;;;2.13;75.34;100386.46;24477;1355;3028619;-61
2021/12/12 05:40:46;;;;;;;17.90;9.00;;;;;;;1.96;75.66;100390.45;24430;1358;3067995;-61
2021/12/12 05:43:15;;;;;;;20.50;9.60;;;;;;;1.71;76.66;100391.04;24516;1355;3026540;-63
2021/12/12 05:45:44;;;;;;;18.80;9.60;;;;;;;1.40;77.68;100389.23;24483;1351;3050602;-61
2021/12/12 05:48:14;;;;;;;16.80;9.40;;;;;;;1.31;78.07;100386.89;24474;1351;3026930;-61
2021/12/12 05:50:44;;;;;;;18.40;8.20;;;;;;;1.29;78.36;100389.50;24525;1354;3028853;-61
2021/12/12 05:53:14;;;;;;;13.00;7.50;;;;;;;1.65;77.42;100380.02;24463;1354;3026034;-61
2021/12/12 05:55:44;;;;;;;11.90;6.70;;;;;;;2.08;75.82;100375.45;24511;1362;3027663;-60
2021/12/12 05:58:16;;;;;;;10.70;6.60;;;;;;;2.07;75.33;100380.98;24491;1358;3026530;-62
2021/12/12 06:01:01;;;;;;;10.90;6.10;;;;;;;1.92;75.89;100384.27;24467;1357;3029674;-61
2021/12/12 06:03:37;;;;;;;19.50;9.20;;;;;;;1.78;76.40;100380.45;24456;1354;3053205;-61
2021/12/12 06:06:16;;;;;;;20.90;11.20;;;;;;;1.51;77.32;100379.48;24498;1357;3052910;-61
2021/12/12 06:08:45;;;;;;;32.10;12.30;;;;;;;1.38;78.05;100385.45;24461;1354;3068933;-62
2021/12/12 06:11:15;;;;;;;24.20;10.40;;;;;;;1.25;78.89;100391.77;24487;1354;3026051;-61
2021/12/12 06:13:45;;;;;;;18.20;9.60;;;;;;;1.28;78.98;100384.49;24434;1354;3027226;-60
2021/12/12 06:16:19;;;;;;;22.30;9.20;;;;;;;1.69;78.19;100379.13;24422;1356;3026372;-62
2021/12/12 06:18:50;;;;;;;;;;;;;;;2.17;76.36;100376.90;24462;1362;3049290;-62
2021/12/12 06:21:19;;;;;;;19.70;10.00;;;;;;;2.20;75.85;100381.89;24390;1354;3026652;-62
2021/12/12 06:23:48;;;;;;;22.50;11.00;;;;;;;2.06;75.96;100381.88;24451;1359;3027479;-60
2021/12/12 06:26:18;;;;;;;21.60;10.00;;;;;;;1.86;77.00;100381.73;24448;1360;3048224;-60
2021/12/12 06:28:48;;;;;;;18.60;9.20;;;;;;;1.62;77.61;100383.86;24507;1354;3026881;-61
2021/12/12 06:31:17;;;;;;;15.90;9.50;;;;;;;1.48;78.22;100385.55;24489;1354;3026281;-61
2021/12/12 06:33:46;;;;;;;17.70;9.70;;;;;;;1.33;78.83;100384.80;24473;1355;3049118;-60
2021/12/12 06:36:16;;;;;;;14.00;7.80;;;;;;;1.25;79.54;100383.66;24492;1355;3026467;-61
2021/12/12 06:38:48;;;;;;;18.40;9.80;;;;;;;1.67;78.12;100381.23;24502;1357;3026008;-62
2021/12/12 06:41:19;;;;;;;19.60;9.70;;;;;;;2.13;76.45;100379.04;24487;1355;3027274;-61
2021/12/12 06:43:52;;;;;;;16.90;9.70;;;;;;;2.19;75.83;100382.08;24458;1354;3026764;-62
2021/12/12 06:46:21;;;;;;;13.90;8.70;;;;;;;1.95;76.59;100382.33;24468;1350;3026299;-60
2021/12/12 06:48:50;;;;;;;19.40;9.80;;;;;;;1.76;77.43;100390.64;24479;1360;3026495;-61
2021/12/12 06:51:20;;;;;;;17.60;8.60;;;;;;;1.56;77.60;100392.73;24480;1357;3049666;-61
2021/12/12 06:53:49;;;;;;;16.10;7.90;;;;;;;1.37;78.35;100402.22;24434;1354;3027695;-61
2021/12/12 06:56:19;;;;;;;17.40;10.00;;;;;;;1.27;78.69;100395.91;24456;1357;3028527;-62
2021/12/12 06:58:48;;;;;;;17.90;8.30;;;;;;;1.16;79.45;100394.25;24468;1354;3049555;-60
2021/12/12 07:01:22;;;;;;;18.30;8.60;;;;;;;1.62;78.46;100386.80;24489;1354;3027023;-62
2021/12/12 07:03:51;;;;;;;19.20;10.20;;;;;;;2.01;76.91;100378.81;24474;1358;3051104;-60
2021/12/12 07:06:22;;;;;;;16.30;8.30;;;;;;;2.10;76.26;100381.48;24451;1354;3026579;-62
2021/12/12 07:08:52;;;;;;;16.70;9.30;;;;;;;1.87;76.60;100378.80;24482;1355;3028639;-60
2021/12/12 07:11:23;;;;;;;17.30;9.30;;;;;;;1.68;77.59;100382.94;24490;1354;3029463;-61
2021/12/12 07:13:52;;;;;;;18.50;9.10;;;;;;;1.57;77.66;100381.66;24456;1357;3026834;-61
2021/12/12 07:16:21;;;;;;;23.30;10.50;;;;;;;1.48;78.01;100383.14;24480;1357;3026262;-61
2021/12/12 07:18:52;;;;;;;19.40;9.90;;;;;;;1.39;78.74;100389.95;24479;1361;3051575;-61
2021/12/12 07:21:21;;;;;;;23.40;11.20;;;;;;;1.33;78.90;100386.37;24463;1355;3027476;-60
2021/12/12 07:23:50;;;;;;;21.90;9.20;;;;;;;1.75;78.40;100375.60;24491;1358;3027194;-61
2021/12/12 07:26:21;;;;;;;17.10;8.70;;;;;;;2.31;76.25;100372.94;24472;1358;3054016;-63
2021/12/12 07:28:54;;;;;;;17.70;9.80;;;;;;;2.36;75.40;100382.55;24452;1354;3029417;-62
2021/12/12 07:31:26;;;;;;;16.10;10.10;;;;;;;2.04;75.89;100383.27;24471;1359;3027774;-61
2021/12/12 07:34:02;;;;;;;18.50;10.30;;;;;;;1.89;76.69;100382.56;24454;1353;3026586;-62
2021/12/12 07:36:34;;;;;;;14.00;7.80;;;;;;;1.45;78.07;100386.27;24472;1360;3055308;-61
2021/12/12 07:39:09;;;;;;;17.30;10.10;;;;;;;1.31;78.70;100394.14;24478;1359;3027186;-62
2021/12/12 07:41:38;;;;;;;19.40;9.90;;;;;;;1.27;79.18;100389.16;24479;1354;3070850;-61
2021/12/12 07:44:09;;;;;;;17.90;8.80;;;;;;;1.10;79.92;100391.54;24490;1358;3026578;-61
2021/12/12 07:46:38;;;;;;;19.20;9.00;;;;;;;1.61;78.92;100382.67;24511;1353;3026702;-62
2021/12/12 07:49:07;;;;;;;13.20;8.30;;;;;;;1.88;76.99;100374.11;24447;1356;3026560;-62
2021/12/12 07:51:38;;;;;;;16.10;7.70;;;;;;;1.96;76.77;100367.81;24481;1357;3026519;-60
2021/12/12 07:54:07;;;;;;;18.00;10.50;;;;;;;1.84;77.09;100379.16;24512;1354;3055640;-61
2021/12/12 07:56:38;;;;;;;15.70;8.90;;;;;;;1.48;78.24;100381.40;24478;1357;3026875;-62
2021/12/12 07:59:08;;;;;;;20.90;11.10;;;;;;;1.48;78.77;100379.16;24483;1355;3026187;-62
2021/12/12 08:01:40;;;;;;;24.70;12.30;;;;;;;1.40;79.11;100378.70;24465;1357;3026584;-60
2021/12/12 08:04:11;;;;;;;19.40;9.90;;;;;;;1.26;79.67;100388.65;24490;1362;3027570;-61
2021/12/12 08:06:40;;;;;;;21.40;11.20;;;;;;;1.80;78.50;100380.41;24459;1354;3028842;-61
2021/12/12 08:09:09;;;;;;;18.10;10.90;;;;;;;2.25;76.63;100375.60;24464;1354;3027011;-61
2021/12/12 08:11:38;;;;;;;20.70;11.30;;;;;;;2.35;76.24;100369.09;24467;1358;3052776;-61
2021/12/12 08:14:14;;;;;;;15.60;9.80;;;;;;;2.16;76.47;100363.26;24473;1357;3027568;-61
2021/12/12 08:16:44;;;;;;;16.10;9.80;;;;;;;1.95;77.00;100355.55;24467;1355;3068376;-61
2021/12/12 08:19:25;;;;;;;19.70;10.60;;;;;;;1.85;77.31;100362.91;24463;1362;3051676;-62
2021/12/12 08:21:59;;;;;;;19.10;10.50;;;;;;;1.63;78.13;100364.69;24502;1359;3025884;-62
2021/12/12 08:24:28;;;;;;;17.60;10.10;;;;;;;1.57;78.64;100365.08;24503;1357;3051060;-60
2021/12/12 08:26:56;;;;;;;13.50;8.10;;;;;;;1.40;79.14;100360.91;24449;1357;3026609;-61
2021/12/12 08:29:26;;;;;;;14.20;8.00;;;;;;;1.85;78.09;100356.52;24495;1357;3051442;-62
2021/12/12 08:31:55;;;;;;;20.00;10.10;;;;;;;2.35;75.85;100355.43;24503;1353;3030017;-61
2021/12/12 08:34:24;;;;;;;17.00;9.20;;;;;;;2.23;76.16;100354.70;24413;1357;3049044;-61
2021/12/12 08:36:54;;;;;;;14.70;9.70;;;;;;;2.14;76.24;100354.98;24455;1358;3026127;-61
2021/12/12 08:39:25;;;;;;;20.30;10.90;;;;;;;2.10;76.49;100354.69;24464;1354;3026624;-61
2021/12/12 08:41:55;;;;;;;21.40;11.80;;;;;;;1.94;76.82;100348.13;24455;1357;3026970;-61
2021/12/12 08:44:24;;;;;;;17.90;11.20;;;;;;;1.73;77.52;100345.94;24410;1354;3027250;-61
2021/12/12 08:46:55;;;;;;;19.20;11.20;;;;;;;1.50;78.51;100347.54;24438;1354;3026592;-60
2021/12/12 08:49:32;;;;;;;17.30;8.10;;;;;;;1.37;79.47;100346.46;24458;1354;3026564;-60
2021/12/12 08:52:09;;;;;;;15.50;9.20;;;;;;;2.03;77.91;100337.30;24465;1355;3067642;-60
2021/12/12 08:54:40;;;;;;;21.20;8.70;;;;;;;2.41;75.93;100329.94;24457;1358;3049009;-61
2021/12/12 08:57:31;;;;;;;19.20;9.80;;;;;;;2.37;75.79;100325.48;24480;1359;3026569;-61
2021/12/12 09:00:05;;;;;;;;;;;;;;;2.26;76.11;100326.33;24505;1358;3055299;-59
2021/12/12 09:02:36;;;;;;;20.30;11.00;;;;;;;2.13;76.32;100320.26;24467;1357;3026544;-59
2021/12/12 09:05:10;;;;;;;20.80;12.10;;;;;;;1.99;76.88;100311.79;24443;1354;3026603;-60
2021/12/12 09:07:42;;;;;;;23.00;12.00;;;;;;;1.88;77.40;100311.23;24464;1353;3052255;-59
2021/12/12 09:10:26;;;;;;;23.50;12.50;;;;;;;1.75;78.27;100308.08;24504;1357;3028183;-59
2021/12/12 09:13:12;;;;;;;20.40;9.20;;;;;;;1.70;78.68;100309.35;24476;1353;3050209;-61
2021/12/12 09:15:48;;;;;;;17.00;9.20;;;;;;;2.40;76.95;100307.11;24450;1354;3056122;-61
2021/12/12 09:18:20;;;;;;;17.60;9.80;;;;;;;2.74;75.49;100314.42;24471;1355;3054531;-61
2021/12/12 09:21:02;;;;;;;17.30;10.50;;;;;;;2.69;75.47;100316.05;24507;1356;3026590;-60
2021/12/12 09:23:45;;;;;;;22.70;12.10;;;;;;;2.69;75.52;100309.13;24458;1361;3053617;-60
2021/12/12 09:26:21;;;;;;;24.10;14.60;;;;;;;2.43;76.06;100299.31;24465;1353;3052094;-60
2021/12/12 09:29:21;;;;;;;30.00;14.50;;;;;;;2.26;77.08;100303.34;24484;1354;3051979;-60
2021/12/12 09:31:53;;;;;;;22.40;13.60;;;;;;;2.06;77.84;100299.42;24449;1357;3056440;-60
2021/12/12 09:34:34;;;;;;;26.60;14.20;;;;;;;2.00;78.54;100303.66;24507;1355;3026545;-60
2021/12/12 09:37:13;;;;;;;22.80;11.30;;;;;;;1.91;78.99;100300.64;24464;1354;3053691;-60
2021/12/12 09:39:46;;;;;;;18.20;10.00;;;;;;;2.45;77.97;100293.55;24479;1354;3054514;-61
2021/12/12 09:42:34;;;;;;;20.00;10.40;;;;;;;2.92;75.50;100290.42;24458;1359;3026757;-61
2021/12/12 09:45:22;;;;;;;18.60;11.60;;;;;;;2.79;75.34;100287.68;24452;1354;3050261;-60
2021/12/12 09:51:14;;;;;;;22.20;13.50;;;;;;;2.36;76.54;100292.81;24477;1360;3056909;-60
2021/12/12 09:51:34;;;;;;;22.50;12.90;;;;;;;2.29;77.62;100303.80;24448;1354;3051654;-61
2021/12/12 09:54:22;;;;;;;19.50;11.40;;;;;;;2.14;77.96;100296.39;24175;1354;3374643;-60
2021/12/12 09:56:59;;;;;;;24.10;13.40;;;;;;;1.94;78.61;100288.17;24418;1361;3052843;-61
2021/12/12 10:00:05;;;;;;;20.60;11.00;;;;;;;1.82;79.47;100282.79;24438;1355;3053139;-61
2021/12/12 10:02:41;;;;;;;19.90;10.90;;;;;;;2.39;77.83;100280.33;24475;1355;3051758;-61
2021/12/12 10:05:51;;;;;;;18.40;10.60;;;;;;;2.76;76.56;100277.20;24486;1354;3031198;-61
2021/12/12 10:08:23;;;;;;;18.40;11.40;;;;;;;2.66;76.32;100277.35;24502;1358;3051816;-61
2021/12/12 10:11:03;;;;;;;26.10;13.70;;;;;;;2.39;77.07;100277.91;24521;1358;3026544;-61
2021/12/12 10:13:34;;;;;;;19.60;12.10;;;;;;;2.12;77.82;100278.80;24475;1361;3054153;-60
2021/12/12 10:16:13;;;;;;;24.10;12.00;;;;;;;2.00;78.21;100277.55;24463;1356;3026346;-61
2021/12/12 10:19:16;;;;;;;27.20;12.80;;;;;;;1.93;78.82;100286.80;24430;1360;3049834;-60
2021/12/12 10:22:08;;;;;;;20.60;10.20;;;;;;;1.92;79.35;100288.19;24480;1361;3056044;-60
2021/12/12 10:24:39;;;;;;;22.30;11.30;;;;;;;2.67;76.89;100283.55;24451;1357;3052955;-60
2021/12/12 10:27:08;;;;;;;22.20;13.30;;;;;;;2.92;75.11;100282.13;24488;1355;3026879;-60
2021/12/12 10:29:58;;;;;;;25.20;13.50;;;;;;;3.00;75.00;100282.52;24443;1354;3026260;-61
2021/12/12 10:32:35;;;;;;;24.40;14.00;;;;;;;2.78;75.26;100286.52;24442;1357;3053993;-60
2021/12/12 10:35:14;;;;;;;26.40;14.40;;;;;;;2.39;75.98;100299.17;24388;1354;3026590;-60
2021/12/12 10:37:57;;;;;;;26.70;14.40;;;;;;;2.25;76.31;100296.77;24429;1355;3049263;-61
2021/12/12 10:40:34;;;;;;;22.10;12.50;;;;;;;1.90;77.39;100295.31;24447;1362;3054824;-60
2021/12/12 10:43:07;;;;;;;24.30;13.50;;;;;;;1.81;77.11;100295.05;24436;1353;3050885;-61
2021/12/12 10:45:39;;;;;;;25.60;14.70;;;;;;;1.69;77.68;100292.27;24412;1359;3027313;-60
2021/12/12 10:48:17;;;;;;;26.60;11.00;;;;;;;1.63;78.31;100285.58;24467;1361;3026741;-60
2021/12/12 10:50:57;;;;;;;20.80;10.90;;;;;;;2.24;76.71;100285.72;24495;1354;3053105;-61
2021/12/12 10:53:29;;;;;;;21.50;11.80;;;;;;;2.72;74.73;100286.77;24463;1359;3051651;-59
2021/12/12 10:56:05;;;;;;;24.60;12.90;;;;;;;2.74;74.28;100287.95;24478;1360;3030213;-60
2021/12/12 10:58:54;;;;;;;29.60;14.80;;;;;;;2.67;74.42;100282.52;24460;1361;3048507;-61
2021/12/12 11:01:32;;;;;;;27.90;15.10;;;;;;;2.30;75.26;100286.33;24485;1360;3055015;-60
2021/12/12 11:04:18;;;;;;;24.80;14.70;;;;;;;2.15;75.61;100279.77;24482;1357;3051806;-59
2021/12/12 11:07:01;;;;;;;25.90;13.30;;;;;;;1.87;76.15;100280.48;24424;1360;3057511;-61
2021/12/12 11:09:43;;;;;;;27.20;15.20;;;;;;;1.78;76.76;100278.67;24482;1355;3053082;-59
2021/12/12 11:12:21;;;;;;;28.00;14.10;;;;;;;1.74;76.98;100276.48;24415;1358;3057436;-60
2021/12/12 11:14:57;;;;;;;23.10;10.70;;;;;;;1.71;77.26;100271.68;24432;1361;3051259;-59
2021/12/12 11:17:32;;;;;;;25.30;12.50;;;;;;;2.45;75.44;100268.31;24413;1357;3068938;-61
2021/12/12 11:20:06;;;;;;;23.30;13.00;;;;;;;2.85;73.53;100260.63;24485;1357;3049136;-60
2021/12/12 11:22:38;;;;;;;25.40;12.80;;;;;;;2.84;73.07;100252.15;24410;1357;3052560;-59
2021/12/12 11:25:29;;;;;;;26.10;14.50;;;;;;;2.66;73.56;100250.36;24445;1362;3026948;-58
2021/12/12 11:28:06;;;;;;;29.80;16.10;;;;;;;2.46;74.30;100251.02;24493;1361;3058412;-55
2021/12/12 11:30:44;;;;;;;29.40;15.60;;;;;;;2.28;74.90;100243.48;24392;1363;3052932;-61
2021/12/12 11:33:14;;;;;;;26.30;13.70;;;;;;;2.11;75.41;100243.39;24435;1360;3052555;-60
2021/12/12 11:35:50;;;;;;;28.80;14.30;;;;;;;2.04;75.40;100235.69;24427;1360;3026856;-59
2021/12/12 11:38:48;;;;;;;29.50;15.20;;;;;;;1.88;75.94;100234.52;24448;1363;3068090;-60
2021/12/12 11:41:29;;;;;;;22.30;12.10;;;;;;;1.80;76.52;100226.14;24474;1351;3048852;-60
2021/12/12 11:44:21;;;;;;;29.10;12.10;;;;;;;2.42;74.32;100228.41;24481;1359;3051847;-61
2021/12/12 11:47:15;;;;;;;21.90;12.30;;;;;;;2.79;72.81;100219.88;24461;1355;3052451;-60
2021/12/12 11:49:57;;;;;;;30.20;13.70;;;;;;;2.74;72.48;100216.31;24477;1355;3060398;-60
2021/12/12 11:52:55;;;;;;;29.90;15.10;;;;;;;2.57;72.89;100215.37;24457;1354;3048948;-59
2021/12/12 11:55:44;;;;;;;27.40;14.70;;;;;;;2.40;73.73;100223.42;24472;1359;3053300;-60
2021/12/12 11:58:16;;;;;;;27.30;15.40;;;;;;;2.19;74.98;100226.50;24493;1360;3052639;-58
2021/12/12 12:01:18;;;;;;;31.50;16.10;;;;;;;2.08;75.69;100224.58;24415;1359;3026607;-59
2021/12/12 12:04:02;;;;;;;27.40;15.30;;;;;;;1.88;76.60;100223.45;24374;1360;3051533;-58